Hervey City, Illinois
Current Conditions -  °F | °C
As of 10:18 AM on Saturday 25 Oct 2014 (Local Time) from KDEC Reporting Station
Haze Haze  
Wind Chill: 62°   Ceiling: 500
Heat Index: 62°   Visibility: 2mi
Dew Point: 59°   Wind: 7mph
Humidity: 90%   Direction: 300°WNW
Pressure: 30.03"   Gusts: NA
Location:  39.7516°N, 88.8516°W
Report Text: KDEC 251518Z 30006KT 2SM BR OVC005 17/15 A3003 RMK AO2 T01670150
Loading
Personal Weather Stations






























Interactive Weather Map
Tropical Storm Tracking
New forecast layout! Learn more

10-Day Weather Forecast

Advertisements
Track Severe Weather on mobile